Time;durP1;ratioP1;P1;durP2;ratioP2;P2;SDS_P1;SDS_P2;PMS_P1;PMS_P2;Temp;Humidity;BMP_temperature;BMP_pressure;BME280_temperature;BME280_humidity;BME280_pressure;Samples;Min_cycle;Max_cycle;Signal;HPM_P1;HPM_P2
2023/11/20 00:00:34;;;;;;;2.00;1.00;;;;;;;6.99;93.74;92653.00;2068265;69;20159;-84
2023/11/20 00:02:59;;;;;;;4.38;0.68;;;;;;;6.96;92.24;92663.28;2068153;69;20259;-84
2023/11/20 00:05:25;;;;;;;2.00;1.00;;;;;;;7.17;91.19;92661.97;2068147;69;20330;-83
2023/11/20 00:07:54;;;;;;;2.10;0.90;;;;;;;6.77;93.07;92649.28;2067706;69;20535;-85
2023/11/20 00:10:22;;;;;;;3.20;1.15;;;;;;;6.99;92.72;92670.50;2067937;69;20141;-85
2023/11/20 00:12:48;;;;;;;1.85;0.85;;;;;;;7.10;90.95;92646.78;2067752;69;20169;-85
2023/11/20 00:15:14;;;;;;;1.05;0.70;;;;;;;7.14;91.50;92655.47;2067606;69;20245;-84
2023/11/20 00:17:39;;;;;;;1.02;0.52;;;;;;;7.10;92.31;92650.34;2064342;69;20159;-85
2023/11/20 00:20:06;;;;;;;1.10;0.95;;;;;;;6.58;93.39;92661.19;2067509;69;20560;-84
2023/11/20 00:22:32;;;;;;;2.38;0.90;;;;;;;6.84;92.11;92654.00;2067172;69;20152;-84
2023/11/20 00:24:58;;;;;;;1.15;0.80;;;;;;;6.97;91.17;92638.84;2068078;69;20149;-84
2023/11/20 00:27:25;;;;;;;2.45;0.70;;;;;;;6.95;90.27;92627.50;2067867;69;20184;-84
2023/11/20 00:29:52;;;;;;;1.08;0.80;;;;;;;7.06;89.82;92649.31;2066764;69;20153;-84
2023/11/20 00:32:18;;;;;;;1.30;0.75;;;;;;;6.63;92.09;92657.38;2064408;69;20152;-85
2023/11/20 00:34:44;;;;;;;2.25;0.82;;;;;;;6.71;92.08;92643.25;2064533;69;20171;-84
2023/11/20 00:37:10;;;;;;;1.67;0.70;;;;;;;6.85;90.74;92652.69;2064412;69;20291;-85
2023/11/20 00:39:40;;;;;;;5.85;0.88;;;;;;;6.87;90.25;92655.63;2064174;69;20161;-85
2023/11/20 00:42:07;;;;;;;0.77;0.57;;;;;;;6.72;90.38;92637.06;2058172;69;20183;-83
2023/11/20 00:44:32;;;;;;;2.53;0.70;;;;;;;6.84;90.51;92640.03;2060982;69;20540;-84
2023/11/20 00:46:58;;;;;;;1.50;0.80;;;;;;;6.45;92.02;92653.22;2060857;69;21046;-83
2023/11/20 00:49:24;;;;;;;1.35;0.80;;;;;;;6.58;91.44;92652.78;2064411;69;20218;-83
2023/11/20 00:51:49;;;;;;;0.95;0.70;;;;;;;6.71;89.44;92646.78;2064316;69;20215;-83
2023/11/20 00:54:15;;;;;;;0.93;0.70;;;;;;;6.50;91.64;92663.38;2060940;69;20157;-85
2023/11/20 00:56:41;;;;;;;0.60;0.60;;;;;;;6.67;90.36;92654.88;2064114;69;20149;-83
2023/11/20 00:59:08;;;;;;;1.13;0.80;;;;;;;6.56;90.22;92652.66;2064348;69;20299;-84
2023/11/20 01:01:36;;;;;;;3.20;0.80;;;;;;;6.34;92.00;92665.69;2060961;69;20228;-83
2023/11/20 01:04:03;;;;;;;0.95;0.70;;;;;;;6.34;91.07;92654.53;2064280;69;20152;-83
2023/11/20 01:06:29;;;;;;;3.90;0.70;;;;;;;6.48;90.85;92649.25;2064368;69;20180;-83
2023/11/20 01:08:54;;;;;;;1.73;0.73;;;;;;;6.55;90.04;92654.72;2061066;69;20137;-83
2023/11/20 01:11:27;;;;;;;0.90;0.88;;;;;;;6.47;90.22;92653.38;2064310;69;20169;-84
2023/11/20 01:13:55;;;;;;;1.20;0.70;;;;;;;6.31;91.29;92669.66;2064496;69;20239;-84
2023/11/20 01:16:21;;;;;;;0.82;0.57;;;;;;;6.48;90.35;92666.75;2060917;69;20242;-83
2023/11/20 01:18:47;;;;;;;4.57;0.90;;;;;;;6.48;90.16;92655.56;2064227;69;20575;-84
2023/11/20 01:21:13;;;;;;;1.70;0.80;;;;;;;6.38;90.49;92668.06;2064517;69;20148;-83
2023/11/20 01:23:39;;;;;;;1.08;0.80;;;;;;;6.27;91.13;92674.94;2064398;69;20188;-84
2023/11/20 01:26:04;;;;;;;1.15;0.80;;;;;;;6.28;90.84;92676.44;2063982;69;20141;-82
2023/11/20 01:28:30;;;;;;;3.00;0.80;;;;;;;6.30;90.51;92665.41;2064253;69;20188;-83
2023/11/20 01:30:56;;;;;;;1.55;0.70;;;;;;;6.37;89.82;92667.34;2064896;69;20137;-83
2023/11/20 01:33:21;;;;;;;0.90;0.70;;;;;;;6.27;90.58;92660.97;2065326;69;20156;-84
2023/11/20 01:35:47;;;;;;;2.03;0.73;;;;;;;5.91;91.66;92665.25;2061992;69;20149;-84
2023/11/20 01:38:18;;;;;;;1.30;0.80;;;;;;;6.10;92.25;92670.94;2065364;69;20144;-84
2023/11/20 01:40:44;;;;;;;4.82;0.70;;;;;;;6.28;90.60;92662.47;2065367;69;20149;-83
2023/11/20 01:43:11;;;;;;;2.75;0.70;;;;;;;6.24;90.07;92650.97;2062060;69;20529;-83
2023/11/20 01:45:36;;;;;;;1.75;0.60;;;;;;;6.27;90.61;92646.97;2065285;69;20176;-85
2023/11/20 01:48:02;;;;;;;0.70;0.60;;;;;;;5.92;91.10;92652.75;2065237;69;20155;-83
2023/11/20 01:50:32;;;;;;;1.35;0.80;;;;;;;5.77;92.80;92647.34;2065375;69;20136;-83
2023/11/20 01:52:59;;;;;;;1.63;0.95;;;;;;;6.10;91.55;92662.53;2061890;69;20247;-83
2023/11/20 01:55:25;;;;;;;2.00;0.80;;;;;;;6.20;90.56;92659.78;2061884;69;20191;-84
2023/11/20 01:57:51;;;;;;;3.00;0.70;;;;;;;6.21;90.15;92633.28;2065455;69;20153;-84
2023/11/20 02:00:19;;;;;;;1.20;0.85;;;;;;;6.15;90.79;92635.63;2062106;69;20180;-84
2023/11/20 02:02:46;;;;;;;0.80;0.73;;;;;;;5.83;92.46;92645.06;2062146;69;20141;-84
2023/11/20 02:05:12;;;;;;;0.98;0.80;;;;;;;5.88;91.99;92638.47;2061939;69;20628;-85
2023/11/20 02:07:38;;;;;;;1.98;0.80;;;;;;;5.97;90.40;92639.84;2065513;69;20199;-84
2023/11/20 02:10:07;;;;;;;1.02;0.70;;;;;;;6.00;90.78;92633.84;2061886;69;20144;-84
2023/11/20 02:12:34;;;;;;;1.73;0.80;;;;;;;5.98;91.88;92644.84;2061841;69;20577;-84
2023/11/20 02:15:00;;;;;;;1.60;0.63;;;;;;;6.05;91.04;92644.00;2062117;69;20164;-83
2023/11/20 02:17:26;;;;;;;2.53;0.77;;;;;;;6.14;90.93;92644.59;2062023;69;20137;-84
2023/11/20 02:19:52;;;;;;;2.17;0.60;;;;;;;5.91;91.88;92642.88;2065510;69;20157;-85
2023/11/20 02:22:18;;;;;;;1.60;0.68;;;;;;;5.85;91.21;92665.50;2061985;69;20180;-84
2023/11/20 02:24:44;;;;;;;1.98;0.80;;;;;;;5.78;91.45;92629.31;2065304;69;20538;-84
2023/11/20 02:27:32;;;;;;;1.95;0.82;;;;;;;5.92;91.00;92615.72;2065183;69;20149;-84
2023/11/20 02:30:01;;;;;;;1.63;0.82;;;;;;;6.03;88.80;92631.91;2065324;69;20586;-84
2023/11/20 02:32:28;;;;;;;1.52;0.90;;;;;;;5.65;91.88;92630.41;2065003;69;20207;-83
2023/11/20 02:34:54;;;;;;;1.42;0.80;;;;;;;5.96;90.72;92638.38;2065669;69;20144;-82
2023/11/20 02:37:19;;;;;;;2.72;0.80;;;;;;;5.82;91.03;92640.78;2065345;69;20201;-83
2023/11/20 02:39:51;;;;;;;4.32;0.73;;;;;;;5.96;90.28;92627.94;2065116;69;20200;-83
2023/11/20 02:42:20;;;;;;;1.63;0.65;;;;;;;5.98;90.44;92632.94;2061552;69;20528;-84
2023/11/20 02:44:47;;;;;;;1.02;0.70;;;;;;;6.09;89.18;92629.56;2064744;69;20797;-84
2023/11/20 02:47:13;;;;;;;5.47;0.70;;;;;;;6.20;89.48;92645.06;2064552;69;20163;-85
2023/11/20 02:49:39;;;;;;;0.63;0.63;;;;;;;5.96;90.22;92625.13;2064572;69;20192;-85
2023/11/20 02:52:06;;;;;;;2.22;1.70;;;;;;;6.05;89.66;92616.03;2061163;69;20223;-84
2023/11/20 02:54:35;;;;;;;2.25;0.70;;;;;;;5.95;90.16;92612.47;2064822;69;20704;-84
2023/11/20 02:57:02;;;;;;;1.55;0.68;;;;;;;5.96;89.75;92600.00;2061275;69;20156;-83
2023/11/20 02:59:28;;;;;;;2.95;0.80;;;;;;;5.86;90.77;92616.69;2064586;69;20156;-84
2023/11/20 03:01:57;;;;;;;1.33;0.90;;;;;;;5.86;90.04;92608.31;2064532;69;20485;-82
2023/11/20 03:04:23;;;;;;;2.55;0.90;;;;;;;5.76;91.19;92609.56;2064675;69;20149;-83
2023/11/20 03:06:49;;;;;;;0.82;0.80;;;;;;;5.89;91.87;92614.03;2064472;69;20267;-84
2023/11/20 03:09:17;;;;;;;2.45;0.80;;;;;;;5.81;91.51;92608.56;2061309;69;20148;-83
2023/11/20 03:11:42;;;;;;;3.50;0.73;;;;;;;5.80;90.13;92596.66;2064436;69;20149;-83
2023/11/20 03:14:09;;;;;;;0.70;0.60;;;;;;;5.80;89.88;92609.88;2061396;69;20214;-83
2023/11/20 03:16:34;;;;;;;1.48;0.77;;;;;;;5.72;91.27;92606.47;2064885;69;20205;-85
2023/11/20 03:19:00;;;;;;;3.35;0.98;;;;;;;5.57;91.02;92585.09;2064442;69;20173;-84
2023/11/20 03:21:27;;;;;;;0.93;0.70;;;;;;;5.82;90.68;92591.25;2060828;69;20169;-84
2023/11/20 03:23:53;;;;;;;1.02;0.80;;;;;;;5.46;91.33;92605.94;2065595;69;20272;-85
2023/11/20 03:26:23;;;;;;;2.25;0.88;;;;;;;5.69;90.96;92613.97;2064342;69;20590;-83
2023/11/20 03:28:50;;;;;;;1.27;0.70;;;;;;;5.59;90.24;92616.00;2064597;69;20168;-84
2023/11/20 03:31:16;;;;;;;1.35;1.00;;;;;;;5.74;90.50;92603.84;2064480;69;20148;-83
2023/11/20 03:33:42;;;;;;;1.35;0.80;;;;;;;5.73;91.14;92591.94;2064526;69;20160;-84
2023/11/20 03:36:08;;;;;;;1.25;0.85;;;;;;;5.77;90.86;92617.41;2064731;69;20137;-83
2023/11/20 03:38:34;;;;;;;1.92;1.05;;;;;;;5.83;90.21;92617.84;2064465;69;20217;-83
2023/11/20 03:41:00;;;;;;;1.60;1.10;;;;;;;5.68;90.79;92581.78;2067698;69;20240;-83
2023/11/20 03:43:28;;;;;;;0.85;0.63;;;;;;;5.79;90.24;92588.88;2067759;69;20137;-83
2023/11/20 03:45:54;;;;;;;2.00;1.00;;;;;;;5.47;90.75;92618.56;2064491;69;20164;-85
2023/11/20 03:48:19;;;;;;;1.52;1.00;;;;;;;5.78;90.41;92606.97;2067775;69;20172;-83
2023/11/20 03:50:45;;;;;;;1.48;0.95;;;;;;;5.80;89.99;92588.28;2067871;69;20218;-83
2023/11/20 03:53:10;;;;;;;1.00;0.70;;;;;;;5.83;89.66;92591.97;2064482;69;20133;-84
2023/11/20 03:55:37;;;;;;;3.72;0.93;;;;;;;5.96;88.78;92582.50;2064239;69;20156;-83
2023/11/20 03:58:05;;;;;;;1.08;0.70;;;;;;;6.00;89.19;92585.56;2064423;69;20172;-83
2023/11/20 04:00:30;;;;;;;1.58;0.82;;;;;;;5.57;89.27;92530.00;2067732;69;20156;-84
2023/11/20 04:02:59;;;;;;;0.93;0.65;;;;;;;5.85;89.92;92587.25;2067702;69;20241;-84
2023/11/20 04:05:25;;;;;;;1.08;0.80;;;;;;;5.75;90.38;92582.97;2067749;69;20182;-83
2023/11/20 04:07:51;;;;;;;1.13;0.60;;;;;;;5.82;89.67;92566.09;2067716;69;20160;-84
2023/11/20 04:10:16;;;;;;;5.00;0.90;;;;;;;5.88;89.34;92579.06;2064342;69;20137;-83
2023/11/20 04:12:45;;;;;;;3.28;1.05;;;;;;;5.84;89.08;92582.25;2067433;69;20172;-83
2023/11/20 04:15:11;;;;;;;1.30;1.00;;;;;;;5.83;88.58;92559.19;2064154;69;20251;-83
2023/11/20 04:17:38;;;;;;;2.55;0.60;;;;;;;5.84;89.34;92571.09;2067913;69;20145;-85
2023/11/20 04:20:05;;;;;;;1.02;0.65;;;;;;;5.74;89.66;92550.78;2064663;69;20167;-85
2023/11/20 04:22:31;;;;;;;2.75;0.70;;;;;;;5.80;88.89;92563.13;2064154;69;20147;-84
2023/11/20 04:24:58;;;;;;;0.77;0.52;;;;;;;5.85;88.04;92573.28;2064182;69;20136;-84
2023/11/20 04:27:24;;;;;;;1.63;1.05;;;;;;;5.84;87.78;92557.84;2067642;69;20247;-84
2023/11/20 04:29:50;;;;;;;2.00;0.85;;;;;;;5.84;88.18;92555.06;2067746;69;20255;-83
2023/11/20 04:32:16;;;;;;;3.78;0.63;;;;;;;5.77;88.58;92547.56;2067521;69;20224;-84
2023/11/20 04:34:42;;;;;;;1.35;0.77;;;;;;;5.88;88.76;92567.88;2068030;69;20148;-84
2023/11/20 04:37:07;;;;;;;0.80;0.70;;;;;;;5.78;88.16;92532.25;2067739;69;20156;-83
2023/11/20 04:39:37;;;;;;;1.15;1.00;;;;;;;5.75;88.79;92564.16;2067712;69;20151;-82
2023/11/20 04:42:04;;;;;;;13.98;7.15;;;;;;;5.71;88.13;92549.88;2064703;69;20164;-83
2023/11/20 04:44:29;;;;;;;4.90;3.15;;;;;;;5.81;89.17;92566.66;2067832;69;20217;-83
2023/11/20 04:46:55;;;;;;;1.55;1.10;;;;;;;5.82;88.70;92559.78;2061771;69;20148;-84
2023/11/20 04:49:21;;;;;;;0.80;0.73;;;;;;;5.92;87.82;92571.00;2067843;69;20154;-83
2023/11/20 04:51:47;;;;;;;3.10;1.20;;;;;;;5.85;88.41;92569.75;2067942;69;20137;-83
2023/11/20 04:54:14;;;;;;;0.82;0.70;;;;;;;5.78;88.08;92571.38;2064684;69;20595;-83
2023/11/20 04:56:40;;;;;;;0.70;0.70;;;;;;;5.76;88.55;92565.63;2064533;69;20164;-84
2023/11/20 04:59:06;;;;;;;2.60;1.13;;;;;;;5.86;87.11;92565.66;2067621;69;20216;-83
2023/11/20 05:01:32;;;;;;;6.80;3.05;;;;;;;5.73;86.84;92580.03;2067860;69;20171;-84
2023/11/20 05:03:58;;;;;;;6.55;2.53;;;;;;;5.89;86.87;92560.97;2068097;69;20149;-84
2023/11/20 05:06:24;;;;;;;8.95;3.33;;;;;;;5.87;87.06;92569.94;2067676;69;20148;-84
2023/11/20 05:08:50;;;;;;;2.38;1.60;;;;;;;5.87;86.59;92561.56;2067976;69;20639;-83
2023/11/20 05:11:15;;;;;;;2.15;1.20;;;;;;;5.26;88.19;92534.56;2067819;69;20202;-82
2023/11/20 05:13:42;;;;;;;3.15;1.85;;;;;;;5.71;87.52;92599.41;2068702;69;20144;-83
2023/11/20 05:16:08;;;;;;;3.65;1.70;;;;;;;5.76;87.21;92581.66;2067881;69;20155;-84
2023/11/20 05:18:34;;;;;;;2.80;1.30;;;;;;;5.66;87.54;92589.25;2064353;69;20147;-83
2023/11/20 05:21:00;;;;;;;4.18;1.60;;;;;;;5.56;87.54;92592.00;2067845;69;20148;-84
2023/11/20 05:23:26;;;;;;;3.10;1.63;;;;;;;5.34;87.45;92580.59;2068217;69;20148;-85
2023/11/20 05:25:53;;;;;;;3.30;1.90;;;;;;;5.45;87.88;92573.75;2068177;69;20244;-84
2023/11/20 05:28:20;;;;;;;3.33;1.42;;;;;;;5.46;87.25;92571.69;2068240;69;20168;-85
2023/11/20 05:30:46;;;;;;;3.20;1.35;;;;;;;5.46;87.56;92580.81;2068187;69;20184;-85
2023/11/20 05:33:12;;;;;;;2.05;1.40;;;;;;;5.53;87.08;92590.38;2064997;69;20252;-84
2023/11/20 05:35:38;;;;;;;2.35;1.30;;;;;;;5.40;88.11;92588.69;2065067;69;20124;-84
2023/11/20 05:38:05;;;;;;;3.45;1.48;;;;;;;5.49;87.36;92587.25;2065759;69;20284;-81
2023/11/20 05:40:34;;;;;;;2.53;1.38;;;;;;;5.46;86.82;92594.03;2068161;69;20612;-84
2023/11/20 05:43:00;;;;;;;4.22;1.33;;;;;;;5.43;86.98;92578.44;2068561;69;20161;-84
2023/11/20 05:45:26;;;;;;;1.52;1.00;;;;;;;5.30;87.26;92594.22;2068344;69;20511;-84
2023/11/20 05:47:51;;;;;;;4.55;1.58;;;;;;;5.12;87.75;92584.44;2068266;69;20194;-84
2023/11/20 05:50:17;;;;;;;3.17;2.00;;;;;;;5.27;87.49;92600.25;2065054;69;20145;-84
2023/11/20 05:52:43;;;;;;;8.13;4.53;;;;;;;4.60;90.16;92617.97;2068266;69;20129;-85
2023/11/20 05:55:08;;;;;;;5.75;3.50;;;;;;;4.59;90.27;92597.72;2068444;69;20180;-85
2023/11/20 05:57:34;;;;;;;6.55;3.40;;;;;;;5.02;88.76;92629.00;2068222;69;20129;-85
2023/11/20 06:00:00;;;;;;;5.97;4.00;;;;;;;5.01;87.68;92619.16;2068449;69;20168;-84
2023/11/20 06:02:26;;;;;;;5.82;2.97;;;;;;;5.09;87.46;92624.66;2068405;69;20232;-85
2023/11/20 06:04:51;;;;;;;3.63;2.58;;;;;;;5.07;86.92;92619.66;2068310;69;20169;-83
2023/11/20 06:07:17;;;;;;;3.30;1.40;;;;;;;4.97;87.58;92618.13;2068441;69;20496;-84
2023/11/20 06:09:43;;;;;;;3.95;2.00;;;;;;;4.71;89.32;92620.25;2068546;69;20527;-83
2023/11/20 06:12:08;;;;;;;2.42;1.67;;;;;;;4.91;88.10;92612.06;2068273;69;20239;-83
2023/11/20 06:14:34;;;;;;;6.38;3.50;;;;;;;4.73;88.51;92628.81;2068496;69;20152;-84
2023/11/20 06:17:00;;;;;;;7.05;3.92;;;;;;;4.82;88.20;92633.72;2068299;69;20167;-85
2023/11/20 06:19:28;;;;;;;9.63;5.68;;;;;;;4.66;87.79;92601.00;2068814;69;20149;-84
2023/11/20 06:21:54;;;;;;;7.43;4.30;;;;;;;4.68;87.93;92618.63;2068817;69;20129;-84
2023/11/20 06:24:21;;;;;;;11.80;5.93;;;;;;;4.34;88.49;92641.66;2068931;69;20211;-85
2023/11/20 06:26:47;;;;;;;11.10;5.18;;;;;;;4.65;88.94;92639.28;2068768;69;20186;-84
2023/11/20 06:29:14;;;;;;;27.50;5.95;;;;;;;4.53;89.05;92641.81;2068942;69;20141;-85
2023/11/20 06:31:39;;;;;;;10.02;4.40;;;;;;;4.77;89.18;92643.06;2069168;69;20301;-84
2023/11/20 06:34:05;;;;;;;7.75;4.35;;;;;;;4.83;88.30;92632.41;2065425;69;20137;-84
2023/11/20 06:36:30;;;;;;;8.90;5.78;;;;;;;4.63;89.71;92628.00;2069220;69;20187;-85
2023/11/20 06:38:59;;;;;;;9.93;5.97;;;;;;;4.77;90.09;92628.41;2068886;69;20140;-84
2023/11/20 06:41:26;;;;;;;13.32;7.82;;;;;;;4.40;90.89;92642.16;2069172;69;20527;-85
2023/11/20 06:43:52;;;;;;;12.60;7.57;;;;;;;4.59;91.90;92645.13;2071435;69;20129;-82
2023/11/20 06:46:22;;;;;;;11.35;5.95;;;;;;;4.83;89.82;92626.09;2074202;69;20152;-80
2023/11/20 06:48:48;;;;;;;8.90;5.60;;;;;;;4.82;89.44;92630.94;2071642;69;20227;-81
2023/11/20 06:51:15;;;;;;;13.38;7.10;;;;;;;4.68;90.73;92629.78;2075216;69;20152;-83
2023/11/20 06:53:43;;;;;;;19.30;6.97;;;;;;;4.61;91.23;92629.88;2075146;69;20141;-82
2023/11/20 06:56:16;;;;;;;20.15;7.38;;;;;;;4.91;90.00;92620.44;2075297;69;20111;-82
2023/11/20 06:58:44;;;;;;;12.88;7.70;;;;;;;5.13;89.42;92621.44;2070498;69;20277;-84
2023/11/20 07:01:09;;;;;;;15.70;7.38;;;;;;;4.97;89.16;92621.63;2070315;69;20191;-83
2023/11/20 07:03:36;;;;;;;14.20;7.38;;;;;;;5.02;89.08;92623.44;2070259;69;20160;-85
2023/11/20 07:06:02;;;;;;;8.82;6.03;;;;;;;5.02;88.61;92617.13;2069898;69;20164;-83
2023/11/20 07:08:28;;;;;;;30.48;7.65;;;;;;;4.70;89.99;92626.41;2069507;69;20145;-85
2023/11/20 07:10:54;;;;;;;49.50;11.73;;;;;;;4.36;91.85;92635.53;2069227;69;20614;-85
2023/11/20 07:13:19;;;;;;;17.38;10.75;;;;;;;4.87;91.51;92625.69;2068941;69;20160;-84
2023/11/20 07:15:45;;;;;;;14.80;9.52;;;;;;;4.83;90.55;92640.75;2068756;69;20591;-85
2023/11/20 07:18:11;;;;;;;14.95;9.75;;;;;;;5.00;89.70;92628.88;2068741;69;20523;-85
2023/11/20 07:20:36;;;;;;;22.92;13.13;;;;;;;4.75;89.82;92619.84;2068614;69;20148;-82
2023/11/20 07:23:04;;;;;;;20.80;11.77;;;;;;;4.93;90.07;92615.72;2068566;69;20655;-82
2023/11/20 07:25:34;;;;;;;18.55;11.32;;;;;;;4.75;90.54;92633.78;2068498;69;20277;-83
2023/11/20 07:28:01;;;;;;;19.67;10.48;;;;;;;4.86;90.50;92641.69;2068447;69;20185;-83
2023/11/20 07:30:27;;;;;;;18.13;10.00;;;;;;;4.73;90.78;92656.69;2068621;69;20203;-83
2023/11/20 07:32:52;;;;;;;16.88;10.10;;;;;;;5.08;89.97;92659.44;2068548;69;20144;-83
2023/11/20 07:35:19;;;;;;;15.18;9.68;;;;;;;5.17;89.01;92658.03;2068469;69;20133;-83
2023/11/20 07:37:44;;;;;;;27.85;9.30;;;;;;;4.74;90.09;92644.22;2068548;69;20159;-83
2023/11/20 07:40:11;;;;;;;69.15;11.30;;;;;;;4.72;91.15;92652.44;2068583;69;20157;-82
2023/11/20 07:42:37;;;;;;;17.13;8.25;;;;;;;5.02;90.10;92651.34;2068498;69;20592;-82
2023/11/20 07:45:03;;;;;;;19.85;8.77;;;;;;;5.12;89.12;92617.19;2068486;69;20163;-82
2023/11/20 07:47:29;;;;;;;8.00;5.70;;;;;;;5.04;89.24;92645.94;2068598;69;20152;-84
2023/11/20 07:49:55;;;;;;;26.88;7.97;;;;;;;4.42;93.17;92647.16;2068543;69;20145;-82
2023/11/20 07:52:21;;;;;;;12.55;6.25;;;;;;;5.15;91.70;92658.63;2068468;69;20140;-83
2023/11/20 07:54:47;;;;;;;11.82;6.75;;;;;;;5.37;90.01;92642.91;2068728;69;20144;-83
2023/11/20 07:57:15;;;;;;;8.85;5.63;;;;;;;5.51;89.43;92655.19;2068410;69;20600;-82
2023/11/20 07:59:43;;;;;;;8.73;5.80;;;;;;;5.26;89.88;92655.31;2065181;69;20164;-81
2023/11/20 08:02:09;;;;;;;9.35;5.20;;;;;;;5.55;89.33;92649.19;2068464;69;20121;-83
2023/11/20 08:04:34;;;;;;;8.77;6.00;;;;;;;5.28;89.79;92641.53;2068639;69;20641;-83
2023/11/20 08:07:00;;;;;;;7.63;5.50;;;;;;;5.74;89.13;92657.66;2065104;69;20160;-82
2023/11/20 08:09:26;;;;;;;6.97;5.18;;;;;;;5.69;88.84;92658.66;2068631;69;20136;-82
2023/11/20 08:11:52;;;;;;;7.90;5.20;;;;;;;5.78;89.07;92666.34;2068397;69;20159;-81
2023/11/20 08:14:18;;;;;;;12.77;7.13;;;;;;;5.77;89.25;92659.28;2068432;69;20639;-83
2023/11/20 08:16:44;;;;;;;12.63;7.50;;;;;;;5.60;89.73;92660.09;2068451;69;20171;-83
2023/11/20 08:19:10;;;;;;;12.07;6.30;;;;;;;5.91;89.42;92662.44;2068336;69;20627;-81
2023/11/20 08:21:36;;;;;;;11.68;6.88;;;;;;;6.35;88.09;92637.16;2068412;69;20157;-82
2023/11/20 08:24:02;;;;;;;9.93;6.20;;;;;;;6.42;87.34;92634.81;2068433;69;20612;-83
2023/11/20 08:26:27;;;;;;;8.30;6.03;;;;;;;5.90;88.87;92646.97;2068425;69;20680;-82
2023/11/20 08:28:53;;;;;;;9.00;6.15;;;;;;;6.42;88.85;92632.75;2068470;69;20235;-83
2023/11/20 08:31:19;;;;;;;9.70;5.80;;;;;;;5.95;89.56;92625.69;2068427;69;20515;-83
2023/11/20 08:33:45;;;;;;;17.52;10.48;;;;;;;5.72;90.44;92632.34;2068396;69;20132;-82
2023/11/20 08:36:12;;;;;;;18.70;9.38;;;;;;;5.58;91.82;92634.03;2068373;69;20177;-86
2023/11/20 08:38:39;;;;;;;12.63;8.52;;;;;;;6.39;89.90;92619.22;2068463;69;20141;-83
2023/11/20 08:41:04;;;;;;;11.43;7.38;;;;;;;5.68;89.96;92642.47;2068406;69;20206;-84
2023/11/20 08:43:30;;;;;;;16.17;9.38;;;;;;;6.24;90.66;92629.34;2068485;69;20168;-83
2023/11/20 08:45:55;;;;;;;12.95;7.47;;;;;;;5.96;89.16;92649.56;2068726;69;20592;-84
2023/11/20 08:48:21;;;;;;;11.68;6.93;;;;;;;6.71;89.49;92635.59;2068454;69;20237;-83
2023/11/20 08:50:47;;;;;;;9.90;6.45;;;;;;;6.50;87.95;92636.13;2068597;69;20609;-84
2023/11/20 08:53:12;;;;;;;10.23;6.90;;;;;;;7.08;88.86;92625.00;2068404;69;20133;-82
2023/11/20 08:55:38;;;;;;;15.35;9.02;;;;;;;7.26;85.83;92639.56;2068356;69;20517;-82
2023/11/20 08:58:04;;;;;;;16.10;9.70;;;;;;;6.83;86.47;92622.50;2068378;69;20644;-82
2023/11/20 09:00:30;;;;;;;7.60;5.50;;;;;;;7.37;87.04;92627.00;2062252;69;20381;-82
2023/11/20 09:02:56;;;;;;;6.60;5.10;;;;;;;7.96;84.41;92636.75;2068323;69;20145;-82
2023/11/20 09:05:22;;;;;;;8.43;6.03;;;;;;;8.54;88.20;92632.97;2068524;69;20180;-82
2023/11/20 09:07:49;;;;;;;8.18;4.60;;;;;;;8.79;83.51;92641.66;2068306;69;20588;-82
2023/11/20 09:10:15;;;;;;;7.85;5.78;;;;;;;9.08;83.78;92632.28;2068307;69;20668;-82
2023/11/20 09:12:44;;;;;;;8.45;5.60;;;;;;;8.44;79.44;92624.59;2068188;69;20231;-81
2023/11/20 09:15:13;;;;;;;7.30;4.50;;;;;;;8.67;81.55;92652.09;2068420;69;20143;-82
2023/11/20 09:17:38;;;;;;;5.65;4.55;;;;;;;9.43;81.28;92647.19;2068247;69;20247;-82
2023/11/20 09:20:05;;;;;;;7.32;4.45;;;;;;;9.96;77.58;92644.19;2068167;69;20658;-82
2023/11/20 09:22:31;;;;;;;7.72;4.43;;;;;;;9.51;78.91;92644.19;2068229;69;20136;-81
2023/11/20 09:24:57;;;;;;;8.10;4.78;;;;;;;9.31;77.86;92654.88;2068483;69;20153;-81
2023/11/20 09:27:23;;;;;;;11.02;5.93;;;;;;;10.08;77.41;92647.00;2068167;69;20228;-81
2023/11/20 09:29:49;;;;;;;8.27;5.50;;;;;;;11.10;75.88;92622.84;2068402;69;20155;-82
2023/11/20 09:32:15;;;;;;;5.93;4.53;;;;;;;11.30;72.97;92633.78;2068303;69;20229;-82
2023/11/20 09:34:41;;;;;;;6.18;4.70;;;;;;;11.32;74.45;92617.75;2068300;69;20145;-82
2023/11/20 09:37:06;;;;;;;7.97;4.57;;;;;;;11.31;74.58;92604.97;2068426;69;20664;-81
2023/11/20 09:39:32;;;;;;;6.30;4.70;;;;;;;10.21;74.41;92620.34;2068166;69;20144;-83
2023/11/20 09:41:59;;;;;;;5.18;4.13;;;;;;;10.81;73.79;92606.38;2068088;69;20155;-82
2023/11/20 09:44:34;;;;;;;6.60;4.15;;;;;;;10.92;70.97;92596.44;2068197;69;20701;-81
2023/11/20 09:47:01;;;;;;;6.53;5.10;;;;;;;10.45;71.88;92610.59;2068372;69;20222;-80
2023/11/20 09:49:32;;;;;;;5.43;3.80;;;;;;;9.62;73.01;92604.16;2068337;69;20247;-84
2023/11/20 09:51:59;;;;;;;5.38;4.07;;;;;;;11.24;71.84;92577.84;2065361;69;20149;-81
2023/11/20 09:54:37;;;;;;;5.90;4.60;;;;;;;11.77;69.53;92586.38;2068697;69;20228;-83
2023/11/20 09:57:03;;;;;;;4.32;3.90;;;;;;;11.55;69.72;92588.00;2068573;69;20173;-80
2023/11/20 09:59:29;;;;;;;4.45;3.65;;;;;;;11.81;69.01;92594.31;2068680;69;20140;-82
2023/11/20 10:01:58;;;;;;;3.70;2.97;;;;;;;10.72;69.79;92598.81;2065349;69;20157;-81
2023/11/20 10:04:24;;;;;;;6.07;4.40;;;;;;;11.98;70.69;92565.66;2068800;69;20207;-81
2023/11/20 10:06:54;;;;;;;7.63;4.30;;;;;;;12.35;64.94;92567.59;2068631;69;20179;-82
2023/11/20 10:09:22;;;;;;;5.70;4.18;;;;;;;11.86;66.37;92548.81;2065512;69;20247;-81
2023/11/20 10:11:52;;;;;;;6.38;3.92;;;;;;;12.37;66.25;92556.41;2068525;69;20313;-81
2023/11/20 10:14:19;;;;;;;5.07;3.90;;;;;;;13.47;62.17;92567.56;2068605;69;20152;-82
2023/11/20 10:16:52;;;;;;;4.20;3.10;;;;;;;13.95;62.47;92562.72;2068647;69;20596;-81
2023/11/20 10:19:18;;;;;;;7.07;5.63;;;;;;;12.33;62.57;92559.03;2068592;69;20159;-82
2023/11/20 10:21:46;;;;;;;3.88;2.90;;;;;;;14.93;59.89;92562.09;2068654;69;20236;-80
2023/11/20 10:24:15;;;;;;;5.15;4.25;;;;;;;14.57;57.41;92557.69;2068670;69;20149;-79
2023/11/20 10:26:41;;;;;;;5.00;3.92;;;;;;;13.77;58.16;92561.88;2068961;69;20148;-79
2023/11/20 10:29:09;;;;;;;5.47;2.92;;;;;;;15.48;55.77;92553.03;2068843;69;20163;-82
2023/11/20 10:31:45;;;;;;;2.92;2.58;;;;;;;15.77;55.50;92559.16;2068642;69;20652;-84
2023/11/20 10:34:11;;;;;;;3.20;2.50;;;;;;;16.46;52.57;92550.41;2068651;69;20275;-82
2023/11/20 10:36:39;;;;;;;4.82;2.38;;;;;;;17.08;53.43;92542.66;2068673;69;20618;-79
2023/11/20 10:39:06;;;;;;;3.15;2.30;;;;;;;19.13;50.76;92538.22;2068643;69;20218;-80
2023/11/20 10:41:33;;;;;;;5.07;2.50;;;;;;;19.90;47.25;92536.59;2068442;69;20588;-81
2023/11/20 10:43:59;;;;;;;2.90;2.35;;;;;;;20.69;47.74;92526.22;2068572;69;20129;-81
2023/11/20 10:46:25;;;;;;;3.20;2.85;;;;;;;18.05;49.64;92521.59;2068639;69;20143;-81
2023/11/20 10:48:52;;;;;;;5.50;2.22;;;;;;;20.76;46.19;92525.66;2068470;69;20153;-80
2023/11/20 10:51:19;;;;;;;4.80;2.22;;;;;;;22.57;45.61;92524.41;2068620;69;20144;-81
2023/11/20 10:54:00;;;;;;;2.90;2.50;;;;;;;23.68;42.83;92507.03;2065448;69;20144;-82
2023/11/20 10:56:30;;;;;;;3.47;2.40;;;;;;;22.35;40.73;92513.38;2068515;69;20156;-81
2023/11/20 10:58:57;;;;;;;2.63;2.15;;;;;;;23.77;41.44;92513.59;2068201;69;20153;-81
2023/11/20 11:01:25;;;;;;;4.13;2.20;;;;;;;23.56;39.91;92512.66;2068612;69;20230;-80
2023/11/20 11:03:52;;;;;;;3.50;2.20;;;;;;;25.85;38.53;92517.56;2068391;69;20195;-79
2023/11/20 11:06:19;;;;;;;2.40;2.10;;;;;;;25.71;38.10;92512.47;2068670;69;20145;-80
2023/11/20 11:08:49;;;;;;;2.25;2.05;;;;;;;27.17;36.87;92524.59;2068703;69;20167;-81
2023/11/20 11:11:15;;;;;;;2.05;1.85;;;;;;;23.91;36.89;92522.34;2068398;69;20165;-81
2023/11/20 11:13:43;;;;;;;2.72;2.10;;;;;;;25.49;38.29;92510.25;2068483;69;20195;-81
2023/11/20 11:16:16;;;;;;;3.92;2.10;;;;;;;26.25;34.48;92498.78;2068497;69;20604;-81
2023/11/20 11:18:48;;;;;;;2.45;1.92;;;;;;;28.15;33.86;92495.13;2068543;69;20141;-81
2023/11/20 11:21:16;;;;;;;3.78;1.80;;;;;;;27.01;33.17;92496.47;2065450;69;20214;-81
2023/11/20 11:23:49;;;;;;;1.70;1.60;;;;;;;23.69;36.49;92487.69;2068502;69;20141;-81
2023/11/20 11:26:21;;;;;;;2.33;2.00;;;;;;;26.99;35.96;92468.31;2068475;69;20143;-81
2023/11/20 11:28:53;;;;;;;2.53;2.05;;;;;;;24.22;36.79;92477.28;2068558;69;20148;-80
2023/11/20 11:31:21;;;;;;;2.63;2.10;;;;;;;26.61;33.96;92466.28;2068322;69;20136;-81
2023/11/20 11:33:55;;;;;;;2.78;2.40;;;;;;;20.85;39.17;92462.88;2068530;69;20155;-82
2023/11/20 11:36:21;;;;;;;2.40;2.20;;;;;;;18.11;44.63;92444.16;2068521;69;20592;-82